createdAt,value
2022-10-24T00:01:54.304Z,15.00
2022-10-24T00:04:23.012Z,15.00
2022-10-24T00:06:52.837Z,15.00
2022-10-24T00:09:21.534Z,15.00
2022-10-24T00:11:49.989Z,15.10
2022-10-24T00:14:18.553Z,15.10
2022-10-24T00:16:47.112Z,15.00
2022-10-24T00:19:15.703Z,15.00
2022-10-24T00:21:44.214Z,15.00
2022-10-24T00:24:14.158Z,15.10
2022-10-24T00:26:43.117Z,15.00
2022-10-24T00:29:11.917Z,15.00
2022-10-24T00:31:40.565Z,15.00
2022-10-24T00:34:09.530Z,15.00
2022-10-24T00:36:38.121Z,15.10
2022-10-24T00:39:06.665Z,15.10
2022-10-24T00:41:41.888Z,15.10
2022-10-24T00:44:22.640Z,15.10
2022-10-24T00:46:55.436Z,15.20
2022-10-24T00:49:28.117Z,15.20
2022-10-24T00:52:02.349Z,15.30
2022-10-24T00:54:31.308Z,15.30
2022-10-24T00:57:06.005Z,15.30
2022-10-24T00:59:35.982Z,15.30
2022-10-24T01:02:05.177Z,15.30
2022-10-24T01:04:34.025Z,15.30
2022-10-24T01:07:17.661Z,15.20
2022-10-24T01:10:03.314Z,15.20
2022-10-24T01:12:40.317Z,15.20
2022-10-24T01:15:14.050Z,15.20
2022-10-24T01:17:52.067Z,15.20
2022-10-24T01:20:56.276Z,15.20
2022-10-24T01:24:05.174Z,15.20
2022-10-24T01:27:02.248Z,15.20
2022-10-24T01:29:51.914Z,15.20
2022-10-24T01:32:30.687Z,15.20
2022-10-24T01:35:04.543Z,15.10
2022-10-24T01:37:41.563Z,15.20
2022-10-24T01:40:14.850Z,15.10
2022-10-24T01:42:45.120Z,15.20
2022-10-24T01:45:22.153Z,15.10
2022-10-24T01:47:55.581Z,15.10
2022-10-24T01:50:27.161Z,15.10
2022-10-24T01:52:58.698Z,15.10
2022-10-24T01:55:27.813Z,15.20
2022-10-24T01:57:56.256Z,15.20
2022-10-24T02:00:27.165Z,15.30
2022-10-24T02:02:58.568Z,15.30
2022-10-24T02:05:31.679Z,15.30
2022-10-24T02:08:05.938Z,15.30
2022-10-24T02:10:39.432Z,15.40
2022-10-24T02:13:14.337Z,15.40
2022-10-24T02:15:50.078Z,15.40
2022-10-24T02:18:18.846Z,15.40
2022-10-24T02:20:54.835Z,15.40
2022-10-24T02:23:28.168Z,15.30
2022-10-24T02:26:00.973Z,15.40
2022-10-24T02:28:34.365Z,15.40
2022-10-24T02:31:08.340Z,15.40
2022-10-24T02:33:42.041Z,15.40
2022-10-24T02:36:14.176Z,15.40
2022-10-24T02:38:45.257Z,15.40
2022-10-24T02:41:19.886Z,15.40
2022-10-24T02:43:50.624Z,15.40
2022-10-24T02:46:21.945Z,15.40
2022-10-24T02:48:54.503Z,15.40
2022-10-24T02:51:25.686Z,15.40
2022-10-24T02:53:54.692Z,15.40
2022-10-24T02:56:23.201Z,15.50
2022-10-24T02:58:51.773Z,15.50
2022-10-24T03:01:21.706Z,15.50
2022-10-24T03:03:50.825Z,15.40
2022-10-24T03:06:19.703Z,15.40
2022-10-24T03:08:48.320Z,15.40
2022-10-24T03:11:16.825Z,15.40
2022-10-24T03:13:45.430Z,15.40
2022-10-24T03:16:14.373Z,15.40
2022-10-24T03:18:44.354Z,15.40
2022-10-24T03:21:12.840Z,15.30
2022-10-24T03:23:42.086Z,15.30
2022-10-24T03:26:10.592Z,15.30
2022-10-24T03:28:39.241Z,15.30
2022-10-24T03:31:07.917Z,15.30
2022-10-24T03:33:36.421Z,15.30
2022-10-24T03:36:07.714Z,15.30
2022-10-24T03:38:36.203Z,15.20
2022-10-24T03:41:05.177Z,15.20
2022-10-24T03:43:33.729Z,15.20
2022-10-24T03:46:02.261Z,15.10
2022-10-24T03:48:30.837Z,15.10
2022-10-24T03:50:59.378Z,15.00
2022-10-24T03:53:29.436Z,15.00
2022-10-24T03:55:58.067Z,15.00
2022-10-24T03:58:26.749Z,14.90
2022-10-24T04:00:58.176Z,14.90
2022-10-24T04:03:27.548Z,14.90
2022-10-24T04:05:56.267Z,14.80
2022-10-24T04:08:24.861Z,14.80
2022-10-24T04:10:54.695Z,14.80
2022-10-24T04:13:23.294Z,14.80
2022-10-24T04:15:51.740Z,14.80
2022-10-24T04:18:20.383Z,14.80
2022-10-24T04:20:48.887Z,14.80
2022-10-24T04:23:17.480Z,14.70
2022-10-24T04:25:47.293Z,14.70
2022-10-24T04:28:17.230Z,14.70
2022-10-24T04:30:45.808Z,14.60
2022-10-24T04:33:14.266Z,14.60
2022-10-24T04:35:48.955Z,14.60
2022-10-24T04:38:18.290Z,14.50
2022-10-24T04:40:47.780Z,14.50
2022-10-24T04:43:18.129Z,14.50
2022-10-24T04:45:47.309Z,14.50
2022-10-24T04:48:16.474Z,14.50
2022-10-24T04:50:47.097Z,14.40
2022-10-24T04:53:15.827Z,14.30
2022-10-24T04:55:45.330Z,14.40
2022-10-24T04:58:13.985Z,14.40
2022-10-24T05:00:46.646Z,14.30
2022-10-24T05:03:15.428Z,14.30
2022-10-24T05:05:44.475Z,14.30
2022-10-24T05:08:13.682Z,14.30
2022-10-24T05:10:42.521Z,14.30
2022-10-24T05:13:11.503Z,14.30
2022-10-24T05:15:40.297Z,14.30
2022-10-24T05:18:10.504Z,14.30
2022-10-24T05:23:12.474Z,14.40
2022-10-24T05:25:41.025Z,14.50
2022-10-24T05:28:09.556Z,14.40
2022-10-24T05:30:38.046Z,14.40
2022-10-24T05:33:06.525Z,14.50
2022-10-24T05:35:36.416Z,14.50
2022-10-24T05:38:05.837Z,14.50
2022-10-24T05:40:34.824Z,14.50
2022-10-24T05:43:03.393Z,14.50
2022-10-24T05:45:32.040Z,14.50
2022-10-24T05:48:00.616Z,14.50
2022-10-24T05:50:30.049Z,14.50
2022-10-24T05:52:59.869Z,14.50
2022-10-24T05:55:28.837Z,14.50
2022-10-24T05:57:57.333Z,14.50
2022-10-24T06:00:25.834Z,14.60
2022-10-24T06:02:54.350Z,14.60
2022-10-24T06:05:23.077Z,14.60
2022-10-24T06:07:51.560Z,14.70
2022-10-24T06:10:21.880Z,14.70
2022-10-24T06:12:50.565Z,14.60
2022-10-24T06:15:19.133Z,14.60
2022-10-24T06:17:47.768Z,14.60
2022-10-24T06:20:16.437Z,14.60
2022-10-24T06:22:46.532Z,14.60
2022-10-24T06:25:16.066Z,14.60
2022-10-24T06:27:46.082Z,14.60
2022-10-24T06:30:14.653Z,14.70
2022-10-24T06:32:44.664Z,14.60
2022-10-24T06:35:15.891Z,14.60
2022-10-24T06:37:47.290Z,14.60
2022-10-24T06:40:17.397Z,14.60
2022-10-24T06:42:47.245Z,14.60
2022-10-24T06:45:16.161Z,14.60
2022-10-24T06:47:44.994Z,14.60
2022-10-24T06:50:13.770Z,14.60
2022-10-24T06:52:42.358Z,14.60
2022-10-24T06:55:11.135Z,14.60
2022-10-24T06:57:41.615Z,14.60
2022-10-24T07:00:14.625Z,14.70
2022-10-24T07:02:43.367Z,14.70
2022-10-24T07:05:14.074Z,14.70
2022-10-24T07:07:43.755Z,14.70
2022-10-24T07:10:14.769Z,14.70
2022-10-24T07:12:44.396Z,14.70
2022-10-24T07:15:14.857Z,14.70
2022-10-24T07:17:44.618Z,14.80
2022-10-24T07:20:14.911Z,14.80
2022-10-24T07:22:45.481Z,14.80
2022-10-24T07:25:16.150Z,14.80
2022-10-24T07:27:44.757Z,14.80
2022-10-24T07:30:19.057Z,14.80
2022-10-24T07:32:48.715Z,14.90
2022-10-24T07:35:17.310Z,14.90
2022-10-24T07:37:45.994Z,14.90
2022-10-24T07:40:14.815Z,14.90
2022-10-24T07:42:43.281Z,14.90
2022-10-24T07:45:12.612Z,15.00
2022-10-24T07:47:42.628Z,15.00
2022-10-24T07:50:11.444Z,15.10
2022-10-24T07:52:40.095Z,15.10
2022-10-24T07:55:09.312Z,15.20
2022-10-24T07:57:37.858Z,15.20
2022-10-24T08:00:07.961Z,15.30
2022-10-24T08:02:42.438Z,15.40
2022-10-24T08:05:12.301Z,15.50
2022-10-24T08:07:40.908Z,15.50
2022-10-24T08:10:12.851Z,15.60
2022-10-24T08:12:41.898Z,15.70
2022-10-24T08:15:11.658Z,15.70
2022-10-24T08:17:40.266Z,15.70
2022-10-24T08:20:11.766Z,15.70
2022-10-24T08:22:40.279Z,15.80
2022-10-24T08:25:11.209Z,15.80
2022-10-24T08:27:39.775Z,15.80
2022-10-24T08:30:09.366Z,15.80
2022-10-24T08:32:38.279Z,15.80
2022-10-24T08:35:07.778Z,15.90
2022-10-24T08:37:38.982Z,15.90
2022-10-24T08:40:13.012Z,15.90
2022-10-24T08:42:41.493Z,16.00
2022-10-24T08:45:14.425Z,16.10
2022-10-24T08:47:48.628Z,16.10
2022-10-24T08:50:24.140Z,16.10
2022-10-24T08:53:01.841Z,16.20
2022-10-24T08:55:48.736Z,16.20
2022-10-24T08:58:21.984Z,16.30
2022-10-24T09:00:53.310Z,16.30
2022-10-24T09:03:43.933Z,16.30
2022-10-24T09:06:19.780Z,16.30
2022-10-24T09:08:53.713Z,16.30
2022-10-24T09:11:29.183Z,16.40
2022-10-24T09:13:58.493Z,16.40
2022-10-24T09:16:27.672Z,16.40
2022-10-24T09:18:58.763Z,16.50
2022-10-24T09:21:27.623Z,16.50
2022-10-24T09:23:57.714Z,16.60
2022-10-24T09:26:31.692Z,16.70
2022-10-24T09:29:00.300Z,16.70
2022-10-24T09:31:29.077Z,16.80
2022-10-24T09:34:00.351Z,16.90
2022-10-24T09:36:31.066Z,16.90
2022-10-24T09:39:27.324Z,17.00
2022-10-24T09:41:56.885Z,17.00
2022-10-24T09:44:43.814Z,17.10
2022-10-24T09:47:26.256Z,17.20
2022-10-24T09:49:55.607Z,17.20
2022-10-24T09:52:28.876Z,17.20
2022-10-24T09:55:18.311Z,17.30
2022-10-24T09:57:47.260Z,17.40
2022-10-24T10:00:25.015Z,17.50
2022-10-24T10:03:02.938Z,17.60
2022-10-24T10:05:43.955Z,17.60
2022-10-24T10:08:17.986Z,17.80
2022-10-24T10:10:57.085Z,17.90
2022-10-24T10:13:27.680Z,17.90
2022-10-24T10:15:58.930Z,18.10
2022-10-24T10:18:33.008Z,18.10
2022-10-24T10:21:06.614Z,18.20
2022-10-24T10:23:38.053Z,18.20
2022-10-24T10:26:20.709Z,18.20
2022-10-24T10:28:55.093Z,18.40
2022-10-24T10:31:27.567Z,18.50
2022-10-24T10:34:16.053Z,18.50
2022-10-24T10:37:13.932Z,18.60
2022-10-24T10:39:57.910Z,18.50
2022-10-24T10:42:36.767Z,18.40
2022-10-24T10:45:16.713Z,18.40
2022-10-24T10:47:57.680Z,18.40
2022-10-24T10:50:32.377Z,18.40
2022-10-24T10:53:12.346Z,18.50
2022-10-24T10:55:48.362Z,18.40
2022-10-24T10:58:29.633Z,18.40
2022-10-24T11:01:09.910Z,18.40
2022-10-24T11:03:45.729Z,18.50
2022-10-24T11:06:28.733Z,18.50
2022-10-24T11:09:29.818Z,18.60
2022-10-24T11:12:07.644Z,18.60
2022-10-24T11:14:40.864Z,18.70
2022-10-24T11:17:16.649Z,18.80
2022-10-24T11:19:55.276Z,18.80
2022-10-24T11:22:26.967Z,18.80
2022-10-24T11:25:00.704Z,18.80
2022-10-24T11:27:37.934Z,18.80
2022-10-24T11:30:15.268Z,18.70
2022-10-24T11:32:49.517Z,18.80
2022-10-24T11:35:26.392Z,18.80
2022-10-24T11:37:59.455Z,18.70
2022-10-24T11:40:31.183Z,18.70
2022-10-24T11:43:08.071Z,18.70
2022-10-24T11:45:45.746Z,18.60
2022-10-24T11:48:20.209Z,18.60
2022-10-24T11:50:54.011Z,18.60
2022-10-24T11:53:46.822Z,18.70
2022-10-24T11:56:22.375Z,18.70
2022-10-24T11:58:58.271Z,18.80
2022-10-24T12:01:49.579Z,18.80
2022-10-24T12:04:51.220Z,18.80
2022-10-24T12:07:49.982Z,18.90
2022-10-24T12:10:38.138Z,19.00
2022-10-24T12:13:42.243Z,19.10
2022-10-24T12:16:17.929Z,19.20
2022-10-24T12:18:50.545Z,19.20
2022-10-24T12:21:26.016Z,19.20
2022-10-24T12:23:58.562Z,19.10
2022-10-24T12:26:29.804Z,19.00
2022-10-24T12:28:59.866Z,19.00
2022-10-24T12:31:30.265Z,18.90
2022-10-24T12:34:48.913Z,18.90
2022-10-24T12:37:37.353Z,18.80
2022-10-24T12:40:50.913Z,18.80
2022-10-24T12:43:31.094Z,18.80
2022-10-24T12:46:01.533Z,18.80
2022-10-24T12:48:35.727Z,18.80
2022-10-24T12:51:21.992Z,18.80
2022-10-24T12:54:15.127Z,18.80
2022-10-24T12:57:21.362Z,18.80
2022-10-24T12:59:52.223Z,18.80
2022-10-24T13:02:49.050Z,18.80
2022-10-24T13:05:36.598Z,18.80
2022-10-24T13:08:19.860Z,18.70
2022-10-24T13:11:01.523Z,18.70
2022-10-24T13:13:55.105Z,18.60
2022-10-24T13:16:35.231Z,18.60
2022-10-24T13:19:17.070Z,18.60
2022-10-24T13:21:50.267Z,18.50
2022-10-24T13:24:29.320Z,18.60
2022-10-24T13:27:26.926Z,18.50
2022-10-24T13:30:24.892Z,18.50
2022-10-24T13:33:32.129Z,18.50
2022-10-24T13:36:16.414Z,18.50
2022-10-24T13:38:50.518Z,18.50
2022-10-24T13:41:26.253Z,18.50
2022-10-24T13:44:00.221Z,18.50
2022-10-24T13:46:35.243Z,18.50
2022-10-24T13:49:05.739Z,18.60
2022-10-24T13:51:43.654Z,18.70
2022-10-24T13:54:18.003Z,18.70
2022-10-24T13:56:49.199Z,18.70
2022-10-24T13:59:34.781Z,18.80
2022-10-24T14:02:06.365Z,18.80
2022-10-24T14:04:36.417Z,18.70
2022-10-24T14:07:07.771Z,18.70
2022-10-24T14:09:42.189Z,18.60
2022-10-24T14:12:20.368Z,18.50
2022-10-24T14:14:51.068Z,18.50
2022-10-24T14:17:23.967Z,18.60
2022-10-24T14:19:55.995Z,18.50
2022-10-24T14:22:27.910Z,18.40
2022-10-24T14:24:57.743Z,18.40
2022-10-24T14:27:27.999Z,18.40
2022-10-24T14:30:05.167Z,18.30
2022-10-24T14:32:33.801Z,18.40
2022-10-24T14:35:03.277Z,18.30
2022-10-24T14:37:35.879Z,18.30
2022-10-24T14:40:05.798Z,18.20
2022-10-24T14:42:35.936Z,18.20
2022-10-24T14:45:05.047Z,18.20
2022-10-24T14:47:38.918Z,18.20
2022-10-24T14:50:34.668Z,18.20
2022-10-24T14:53:04.333Z,18.20
2022-10-24T14:55:33.714Z,18.20
2022-10-24T14:58:03.660Z,18.20
2022-10-24T15:00:39.367Z,18.10
2022-10-24T15:03:08.125Z,18.10
2022-10-24T15:05:39.757Z,18.00
2022-10-24T15:08:35.985Z,17.90
2022-10-24T15:11:14.465Z,17.90
2022-10-24T15:14:05.287Z,17.80
2022-10-24T15:16:37.718Z,17.80
2022-10-24T15:19:10.875Z,17.70
2022-10-24T15:21:41.838Z,17.70
2022-10-24T15:24:22.406Z,17.70
2022-10-24T15:26:51.552Z,17.60
2022-10-24T15:29:23.724Z,17.70
2022-10-24T15:31:53.071Z,17.70
2022-10-24T15:34:24.828Z,17.70
2022-10-24T15:36:56.874Z,17.70
2022-10-24T15:39:26.533Z,17.70
2022-10-24T15:41:55.462Z,17.70
2022-10-24T15:44:29.516Z,17.70
2022-10-24T15:46:58.317Z,17.60
2022-10-24T15:49:28.111Z,17.50
2022-10-24T15:51:58.717Z,17.50
2022-10-24T15:54:27.694Z,17.50
2022-10-24T15:56:58.622Z,17.50
2022-10-24T15:59:30.446Z,17.40
2022-10-24T16:02:03.066Z,17.40
2022-10-24T16:04:33.340Z,17.40
2022-10-24T16:07:02.501Z,17.30
2022-10-24T16:09:31.654Z,17.30
2022-10-24T16:12:00.259Z,17.30
2022-10-24T16:14:30.430Z,17.30
2022-10-24T16:16:59.160Z,17.30
2022-10-24T16:19:28.143Z,17.30
2022-10-24T16:21:58.692Z,17.30
2022-10-24T16:24:28.719Z,17.30
2022-10-24T16:26:57.453Z,17.20
2022-10-24T16:29:26.008Z,17.20
2022-10-24T16:31:55.849Z,17.20
2022-10-24T16:34:25.192Z,17.00
2022-10-24T16:36:55.085Z,17.00
2022-10-24T16:39:24.083Z,17.00
2022-10-24T16:41:55.196Z,17.00
2022-10-24T16:44:23.815Z,17.00
2022-10-24T16:46:55.346Z,17.00
2022-10-24T16:49:24.243Z,16.90
2022-10-24T16:51:52.871Z,16.90
2022-10-24T16:54:22.785Z,16.90
2022-10-24T16:56:53.942Z,16.90
2022-10-24T16:59:22.789Z,16.80
2022-10-24T17:01:51.455Z,16.90
2022-10-24T17:04:21.346Z,16.80
2022-10-24T17:06:49.893Z,16.80
2022-10-24T17:09:18.525Z,16.80
2022-10-24T17:11:47.202Z,16.70
2022-10-24T17:14:15.709Z,16.70
2022-10-24T17:16:44.947Z,16.70
2022-10-24T17:19:17.494Z,16.70
2022-10-24T17:21:50.584Z,16.70
2022-10-24T17:24:21.587Z,16.70
2022-10-24T17:26:51.434Z,16.70
2022-10-24T17:29:26.945Z,16.60
2022-10-24T17:31:56.347Z,16.60
2022-10-24T17:34:25.157Z,16.50
2022-10-24T17:37:04.061Z,16.50
2022-10-24T17:39:35.027Z,16.50
2022-10-24T17:42:03.749Z,16.50
2022-10-24T17:44:32.750Z,16.50
2022-10-24T17:47:01.574Z,16.40
2022-10-24T17:49:30.089Z,16.40
2022-10-24T17:52:00.054Z,16.40
2022-10-24T17:54:28.581Z,16.40
2022-10-24T17:56:57.069Z,16.30
2022-10-24T17:59:25.749Z,16.30
2022-10-24T18:01:54.481Z,16.30
2022-10-24T18:04:23.492Z,16.20
2022-10-24T18:06:52.060Z,16.30
2022-10-24T18:09:21.925Z,16.30
2022-10-24T18:11:50.459Z,16.30
2022-10-24T18:14:18.955Z,16.30
2022-10-24T18:16:47.486Z,16.30
2022-10-24T18:19:16.004Z,16.20
2022-10-24T18:21:44.899Z,16.30
2022-10-24T18:24:13.450Z,16.10
2022-10-24T18:26:43.348Z,16.10
2022-10-24T18:29:12.055Z,16.10
2022-10-24T18:31:40.602Z,16.10
2022-10-24T18:34:09.098Z,16.10
2022-10-24T18:36:37.757Z,16.10
2022-10-24T18:39:07.082Z,16.00
2022-10-24T18:41:56.982Z,16.00
2022-10-24T18:44:28.173Z,16.00
2022-10-24T18:46:59.666Z,15.90
2022-10-24T18:49:28.627Z,15.90
2022-10-24T18:52:07.291Z,15.80
2022-10-24T18:54:37.420Z,15.80
2022-10-24T18:57:21.858Z,15.80
2022-10-24T18:59:50.866Z,15.80
2022-10-24T19:02:27.943Z,15.70
2022-10-24T19:05:05.495Z,15.70
2022-10-24T19:07:34.324Z,15.60
2022-10-24T19:10:03.097Z,15.60
2022-10-24T19:12:36.054Z,15.50
2022-10-24T19:15:05.203Z,15.40
2022-10-24T19:17:33.836Z,15.40
2022-10-24T19:20:02.373Z,15.30
2022-10-24T19:22:31.447Z,15.30
2022-10-24T19:24:59.966Z,15.20
2022-10-24T19:27:29.255Z,15.10
2022-10-24T19:29:59.242Z,15.10
2022-10-24T19:32:28.396Z,15.00
2022-10-24T19:34:57.167Z,15.00
2022-10-24T19:37:26.323Z,14.90
2022-10-24T19:39:54.893Z,14.90
2022-10-24T19:42:23.486Z,14.80
2022-10-24T19:44:54.642Z,14.80
2022-10-24T19:47:24.698Z,14.80
2022-10-24T19:49:53.276Z,14.70
2022-10-24T19:52:22.375Z,14.70
2022-10-24T19:54:51.026Z,14.60
2022-10-24T19:57:19.575Z,14.60
2022-10-24T19:59:48.080Z,14.50
2022-10-24T20:02:16.870Z,14.50
2022-10-24T20:04:49.026Z,14.40
2022-10-24T20:07:18.270Z,14.40
2022-10-24T20:09:46.878Z,14.40
2022-10-24T20:12:15.482Z,14.30
2022-10-24T20:14:43.909Z,14.30
2022-10-24T20:17:12.438Z,14.30
2022-10-24T20:19:40.921Z,14.30
2022-10-24T20:22:10.969Z,14.20
2022-10-24T20:24:39.510Z,14.20
2022-10-24T20:27:08.017Z,14.20
2022-10-24T20:29:36.878Z,14.10
2022-10-24T20:32:05.955Z,14.10
2022-10-24T20:34:36.041Z,14.10
2022-10-24T20:37:06.611Z,14.10
2022-10-24T20:39:37.730Z,14.10
2022-10-24T20:42:06.798Z,14.10
2022-10-24T20:44:35.335Z,14.00
2022-10-24T20:47:03.814Z,14.00
2022-10-24T20:49:32.767Z,14.00
2022-10-24T20:52:01.319Z,13.90
2022-10-24T20:54:29.955Z,13.90
2022-10-24T20:56:59.868Z,13.90
2022-10-24T20:59:28.451Z,13.90
2022-10-24T21:01:56.984Z,13.80
2022-10-24T21:04:25.621Z,13.80
2022-10-24T21:06:54.113Z,13.80
2022-10-24T21:09:22.696Z,13.80
2022-10-24T21:11:51.176Z,13.80
2022-10-24T21:14:21.396Z,13.70
2022-10-24T21:16:50.073Z,13.70
2022-10-24T21:19:18.607Z,13.70
2022-10-24T21:21:47.067Z,13.60
2022-10-24T21:24:17.859Z,13.60
2022-10-24T21:26:46.342Z,13.60
2022-10-24T21:29:32.328Z,13.60
2022-10-24T21:32:03.534Z,13.60
2022-10-24T21:34:34.413Z,13.60
2022-10-24T21:37:04.806Z,13.60
2022-10-24T21:39:33.407Z,13.50
2022-10-24T21:42:01.970Z,13.50
2022-10-24T21:44:30.426Z,13.50
2022-10-24T21:46:59.008Z,13.50
2022-10-24T21:49:28.822Z,13.40
2022-10-24T21:51:57.319Z,13.40
2022-10-24T21:54:28.591Z,13.40
2022-10-24T21:56:57.187Z,13.40
2022-10-24T21:59:25.662Z,13.40
2022-10-24T22:01:54.284Z,13.30
2022-10-24T22:04:22.894Z,13.30
2022-10-24T22:06:53.748Z,13.30
2022-10-24T22:09:24.479Z,13.30
2022-10-24T22:11:54.390Z,13.30
2022-10-24T22:14:23.078Z,13.20
2022-10-24T22:16:51.574Z,13.20
2022-10-24T22:19:20.121Z,13.20
2022-10-24T22:21:50.943Z,13.20
2022-10-24T22:24:23.261Z,13.20
2022-10-24T22:26:53.028Z,13.20
2022-10-24T22:29:23.364Z,13.10
2022-10-24T22:31:53.275Z,13.10
2022-10-24T22:34:23.768Z,13.10
2022-10-24T22:37:06.285Z,13.10
2022-10-24T22:39:37.122Z,13.10
2022-10-24T22:42:07.463Z,13.00
2022-10-24T22:44:36.704Z,13.00
2022-10-24T22:47:37.305Z,13.00
2022-10-24T22:50:15.049Z,13.00
2022-10-24T22:52:44.407Z,13.00
2022-10-24T22:55:20.612Z,12.90
2022-10-24T22:57:49.684Z,12.90
2022-10-24T23:00:19.820Z,13.00
2022-10-24T23:02:51.558Z,12.90
2022-10-24T23:05:30.702Z,12.90
2022-10-24T23:08:03.182Z,12.90
2022-10-24T23:10:33.793Z,12.90
2022-10-24T23:13:02.966Z,12.90
2022-10-24T23:15:31.973Z,12.90
2022-10-24T23:18:00.905Z,12.90
2022-10-24T23:20:34.377Z,12.90
2022-10-24T23:23:16.185Z,12.90
2022-10-24T23:26:01.217Z,12.80
2022-10-24T23:28:35.030Z,12.80
2022-10-24T23:33:37.942Z,12.80
2022-10-24T23:36:07.351Z,12.80
2022-10-24T23:38:36.581Z,12.80
2022-10-24T23:41:09.893Z,12.80
2022-10-24T23:43:39.113Z,12.80
2022-10-24T23:46:18.042Z,12.80
2022-10-24T23:48:54.401Z,12.80
2022-10-24T23:51:30.926Z,12.70
2022-10-24T23:54:00.365Z,12.70
2022-10-24T23:56:31.185Z,12.70
2022-10-24T23:59:00.166Z,12.70
